Anchorage/Lake Hood Seaplane Base, Alaska
Current Conditions -  °F | °C
As of 8:53 AM on Thursday 18 Dec 2014 (Local Time) from PALH Reporting Station
Clear Clear  
Wind Chill: 16°   Ceiling: Unl
Heat Index: 24°   Visibility: 10mi
Dew Point: 18°   Wind: 7mph
Humidity: 77%   Direction: 30°NNE
Pressure: 29.52"   Gusts: NA
Location:  61.18°N, 149.97°W
Report Text: PALH 181753Z 03006KT 10SM CLR M04/M08 A2952 RMK AO2 SLP997 T10441078 11044 21072 58012
Loading
Personal Weather Stations






























Interactive Weather Map New forecast layout! Learn more

10-Day Weather Forecast

Advertisements
Track Severe Weather on mobile